sensor_id;sensor_type;location;lat;lon;timestamp;pressure;altitude;pressure_sealevel;temperature;humidity
64551;BME280;74341;44.510;-123.270;2024-01-30T00:00:05;100581.84;;;11.87;100.00
64551;BME280;74341;44.510;-123.270;2024-01-30T00:02:32;100584.78;;;11.85;100.00
64551;BME280;74341;44.510;-123.270;2024-01-30T00:04:58;100587.69;;;11.84;100.00
64551;BME280;74341;44.510;-123.270;2024-01-30T00:07:24;100588.06;;;11.80;100.00
64551;BME280;74341;44.510;-123.270;2024-01-30T00:09:51;100596.47;;;11.79;100.00
64551;BME280;74341;44.510;-123.270;2024-01-30T00:12:17;100597.31;;;11.79;100.00
64551;BME280;74341;44.510;-123.270;2024-01-30T00:14:43;100590.50;;;11.75;100.00
64551;BME280;74341;44.510;-123.270;2024-01-30T00:17:09;100610.91;;;11.73;100.00
64551;BME280;74341;44.510;-123.270;2024-01-30T00:19:36;100608.06;;;11.66;100.00
64551;BME280;74341;44.510;-123.270;2024-01-30T00:22:02;100617.53;;;11.64;100.00
64551;BME280;74341;44.510;-123.270;2024-01-30T00:24:29;100614.47;;;11.58;100.00
64551;BME280;74341;44.510;-123.270;2024-01-30T00:26:55;100607.66;;;11.54;100.00
64551;BME280;74341;44.510;-123.270;2024-01-30T00:29:21;100618.13;;;11.51;100.00
64551;BME280;74341;44.510;-123.270;2024-01-30T00:31:48;100629.66;;;11.46;100.00
64551;BME280;74341;44.510;-123.270;2024-01-30T00:34:14;100645.59;;;11.43;100.00
64551;BME280;74341;44.510;-123.270;2024-01-30T00:36:41;100652.94;;;11.42;100.00
64551;BME280;74341;44.510;-123.270;2024-01-30T00:39:07;100657.56;;;11.41;100.00
64551;BME280;74341;44.510;-123.270;2024-01-30T00:41:35;100653.31;;;11.39;100.00
64551;BME280;74341;44.510;-123.270;2024-01-30T00:44:01;100655.34;;;11.37;100.00
64551;BME280;74341;44.510;-123.270;2024-01-30T00:46:27;100646.00;;;11.31;100.00
64551;BME280;74341;44.510;-123.270;2024-01-30T00:48:53;100634.75;;;11.26;100.00
64551;BME280;74341;44.510;-123.270;2024-01-30T00:51:20;100635.31;;;11.21;100.00
64551;BME280;74341;44.510;-123.270;2024-01-30T00:53:46;100649.16;;;11.20;100.00
64551;BME280;74341;44.510;-123.270;2024-01-30T00:56:12;100640.47;;;11.16;100.00
64551;BME280;74341;44.510;-123.270;2024-01-30T00:58:39;100644.41;;;11.14;100.00
64551;BME280;74341;44.510;-123.270;2024-01-30T01:01:05;100634.34;;;11.14;100.00
64551;BME280;74341;44.510;-123.270;2024-01-30T01:03:33;100639.44;;;11.17;100.00
64551;BME280;74341;44.510;-123.270;2024-01-30T01:05:59;100651.06;;;11.19;100.00
64551;BME280;74341;44.510;-123.270;2024-01-30T01:08:26;100657.88;;;11.23;100.00
64551;BME280;74341;44.510;-123.270;2024-01-30T01:10:52;100635.63;;;11.27;100.00
64551;BME280;74341;44.510;-123.270;2024-01-30T01:13:19;100627.88;;;11.30;100.00
64551;BME280;74341;44.510;-123.270;2024-01-30T01:15:45;100632.13;;;11.33;100.00
64551;BME280;74341;44.510;-123.270;2024-01-30T01:18:12;100639.69;;;11.31;100.00
64551;BME280;74341;44.510;-123.270;2024-01-30T01:20:38;100642.41;;;11.31;100.00
64551;BME280;74341;44.510;-123.270;2024-01-30T01:23:08;100641.88;;;11.35;100.00
64551;BME280;74341;44.510;-123.270;2024-01-30T01:25:34;100645.47;;;11.36;100.00
64551;BME280;74341;44.510;-123.270;2024-01-30T01:28:01;100664.44;;;11.37;100.00
64551;BME280;74341;44.510;-123.270;2024-01-30T01:30:27;100684.13;;;11.33;100.00
64551;BME280;74341;44.510;-123.270;2024-01-30T01:32:54;100708.44;;;11.28;100.00
64551;BME280;74341;44.510;-123.270;2024-01-30T01:35:23;100708.44;;;11.28;100.00
64551;BME280;74341;44.510;-123.270;2024-01-30T01:37:54;100704.19;;;11.25;100.00
64551;BME280;74341;44.510;-123.270;2024-01-30T01:40:26;100706.63;;;11.20;100.00
64551;BME280;74341;44.510;-123.270;2024-01-30T01:42:54;100691.22;;;11.19;100.00
64551;BME280;74341;44.510;-123.270;2024-01-30T01:45:21;100701.00;;;11.13;100.00
64551;BME280;74341;44.510;-123.270;2024-01-30T01:47:51;100701.56;;;11.09;100.00
64551;BME280;74341;44.510;-123.270;2024-01-30T01:50:18;100698.28;;;11.13;100.00
64551;BME280;74341;44.510;-123.270;2024-01-30T01:52:50;100718.28;;;11.14;100.00
64551;BME280;74341;44.510;-123.270;2024-01-30T01:55:17;100722.25;;;11.11;100.00
64551;BME280;74341;44.510;-123.270;2024-01-30T01:57:47;100727.72;;;11.11;100.00
64551;BME280;74341;44.510;-123.270;2024-01-30T02:00:14;100746.88;;;11.11;100.00
64551;BME280;74341;44.510;-123.270;2024-01-30T02:02:41;100742.97;;;11.06;100.00
64551;BME280;74341;44.510;-123.270;2024-01-30T02:05:09;100739.72;;;11.02;100.00
64551;BME280;74341;44.510;-123.270;2024-01-30T02:07:38;100742.63;;;11.00;100.00
64551;BME280;74341;44.510;-123.270;2024-01-30T02:10:07;100744.53;;;11.00;100.00
64551;BME280;74341;44.510;-123.270;2024-01-30T02:12:35;100748.81;;;10.94;100.00
64551;BME280;74341;44.510;-123.270;2024-01-30T02:15:02;100740.97;;;10.91;100.00
64551;BME280;74341;44.510;-123.270;2024-01-30T02:17:28;100767.47;;;10.91;100.00
64551;BME280;74341;44.510;-123.270;2024-01-30T02:19:54;100773.97;;;10.90;100.00
64551;BME280;74341;44.510;-123.270;2024-01-30T02:22:22;100775.50;;;10.92;100.00
64551;BME280;74341;44.510;-123.270;2024-01-30T02:24:48;100779.09;;;10.93;100.00
64551;BME280;74341;44.510;-123.270;2024-01-30T02:27:15;100775.50;;;10.92;100.00
64551;BME280;74341;44.510;-123.270;2024-01-30T02:29:44;100778.59;;;10.89;100.00
64551;BME280;74341;44.510;-123.270;2024-01-30T02:32:11;100781.50;;;10.88;100.00
64551;BME280;74341;44.510;-123.270;2024-01-30T02:34:37;100782.53;;;10.87;100.00
64551;BME280;74341;44.510;-123.270;2024-01-30T02:37:04;100774.66;;;10.83;100.00
64551;BME280;74341;44.510;-123.270;2024-01-30T02:39:30;100771.13;;;10.75;100.00
64551;BME280;74341;44.510;-123.270;2024-01-30T02:41:56;100781.91;;;10.68;100.00
64551;BME280;74341;44.510;-123.270;2024-01-30T02:44:23;100785.00;;;10.65;100.00
64551;BME280;74341;44.510;-123.270;2024-01-30T02:46:49;100789.78;;;10.63;100.00
64551;BME280;74341;44.510;-123.270;2024-01-30T02:49:16;100807.88;;;10.64;100.00
64551;BME280;74341;44.510;-123.270;2024-01-30T02:51:42;100803.97;;;10.67;100.00
64551;BME280;74341;44.510;-123.270;2024-01-30T02:54:09;100810.09;;;10.60;100.00
64551;BME280;74341;44.510;-123.270;2024-01-30T02:56:35;100809.94;;;10.62;100.00
64551;BME280;74341;44.510;-123.270;2024-01-30T02:59:01;100818.50;;;10.59;100.00
64551;BME280;74341;44.510;-123.270;2024-01-30T03:01:28;100829.78;;;10.56;100.00
64551;BME280;74341;44.510;-123.270;2024-01-30T03:03:54;100806.88;;;10.57;100.00
64551;BME280;74341;44.510;-123.270;2024-01-30T03:06:21;100839.38;;;10.52;100.00
64551;BME280;74341;44.510;-123.270;2024-01-30T03:08:48;100827.56;;;10.51;100.00
64551;BME280;74341;44.510;-123.270;2024-01-30T03:11:15;100843.28;;;10.49;100.00
64551;BME280;74341;44.510;-123.270;2024-01-30T03:13:41;100849.06;;;10.46;100.00
64551;BME280;74341;44.510;-123.270;2024-01-30T03:16:08;100842.59;;;10.47;100.00
64551;BME280;74341;44.510;-123.270;2024-01-30T03:18:35;100838.81;;;10.48;100.00
64551;BME280;74341;44.510;-123.270;2024-01-30T03:21:01;100840.88;;;10.46;100.00
64551;BME280;74341;44.510;-123.270;2024-01-30T03:23:28;100837.13;;;10.47;100.00
64551;BME280;74341;44.510;-123.270;2024-01-30T03:25:54;100849.97;;;10.46;100.00
64551;BME280;74341;44.510;-123.270;2024-01-30T03:28:20;100827.03;;;10.48;100.00
64551;BME280;74341;44.510;-123.270;2024-01-30T03:30:46;100873.34;;;10.41;100.00
64551;BME280;74341;44.510;-123.270;2024-01-30T03:33:13;100860.03;;;10.38;100.00
64551;BME280;74341;44.510;-123.270;2024-01-30T03:35:40;100840.91;;;10.38;100.00
64551;BME280;74341;44.510;-123.270;2024-01-30T03:38:06;100841.06;;;10.36;100.00
64551;BME280;74341;44.510;-123.270;2024-01-30T03:40:32;100866.47;;;10.28;100.00
64551;BME280;74341;44.510;-123.270;2024-01-30T03:42:58;100846.50;;;10.28;100.00
64551;BME280;74341;44.510;-123.270;2024-01-30T03:45:25;100859.81;;;10.23;100.00
64551;BME280;74341;44.510;-123.270;2024-01-30T03:47:51;100859.97;;;10.21;100.00
64551;BME280;74341;44.510;-123.270;2024-01-30T03:50:18;100864.44;;;10.22;100.00
64551;BME280;74341;44.510;-123.270;2024-01-30T03:52:44;100865.28;;;10.23;100.00
64551;BME280;74341;44.510;-123.270;2024-01-30T03:55:10;100865.28;;;10.23;100.00
64551;BME280;74341;44.510;-123.270;2024-01-30T03:57:37;100886.81;;;10.26;100.00
64551;BME280;74341;44.510;-123.270;2024-01-30T04:00:03;100897.56;;;10.27;100.00
64551;BME280;74341;44.510;-123.270;2024-01-30T04:02:30;100891.94;;;10.29;100.00
64551;BME280;74341;44.510;-123.270;2024-01-30T04:04:57;100902.88;;;10.29;100.00
64551;BME280;74341;44.510;-123.270;2024-01-30T04:07:24;100910.03;;;10.30;100.00
64551;BME280;74341;44.510;-123.270;2024-01-30T04:09:50;100908.03;;;10.32;100.00
64551;BME280;74341;44.510;-123.270;2024-01-30T04:12:17;100915.03;;;10.35;100.00
64551;BME280;74341;44.510;-123.270;2024-01-30T04:14:43;100896.75;;;10.35;100.00
64551;BME280;74341;44.510;-123.270;2024-01-30T04:17:09;100907.50;;;10.37;100.00
64551;BME280;74341;44.510;-123.270;2024-01-30T04:19:39;100902.03;;;10.37;100.00
64551;BME280;74341;44.510;-123.270;2024-01-30T04:22:06;100927.69;;;10.36;100.00
64551;BME280;74341;44.510;-123.270;2024-01-30T04:24:32;100918.44;;;10.37;100.00
64551;BME280;74341;44.510;-123.270;2024-01-30T04:26:58;100925.97;;;10.35;100.00
64551;BME280;74341;44.510;-123.270;2024-01-30T04:29:24;100903.94;;;10.36;100.00
64551;BME280;74341;44.510;-123.270;2024-01-30T04:31:51;100922.84;;;10.30;100.00
64551;BME280;74341;44.510;-123.270;2024-01-30T04:34:17;100899.09;;;10.30;100.00
64551;BME280;74341;44.510;-123.270;2024-01-30T04:36:44;100919.44;;;10.27;100.00
64551;BME280;74341;44.510;-123.270;2024-01-30T04:39:11;100911.56;;;10.24;100.00
64551;BME280;74341;44.510;-123.270;2024-01-30T04:41:38;100908.66;;;10.26;100.00
64551;BME280;74341;44.510;-123.270;2024-01-30T04:44:05;100914.97;;;10.26;100.00
64551;BME280;74341;44.510;-123.270;2024-01-30T04:46:32;100916.69;;;10.27;100.00
64551;BME280;74341;44.510;-123.270;2024-01-30T04:49:00;100918.75;;;10.25;100.00
64551;BME280;74341;44.510;-123.270;2024-01-30T04:51:26;100919.59;;;10.26;100.00
64551;BME280;74341;44.510;-123.270;2024-01-30T04:53:53;100924.53;;;10.22;100.00
64551;BME280;74341;44.510;-123.270;2024-01-30T04:56:19;100920.09;;;10.21;100.00
64551;BME280;74341;44.510;-123.270;2024-01-30T04:58:45;100921.28;;;10.19;100.00
64551;BME280;74341;44.510;-123.270;2024-01-30T05:01:15;100926.91;;;10.17;100.00
64551;BME280;74341;44.510;-123.270;2024-01-30T05:03:42;100927.59;;;10.11;100.00
64551;BME280;74341;44.510;-123.270;2024-01-30T05:06:08;100926.56;;;10.12;100.00
64551;BME280;74341;44.510;-123.270;2024-01-30T05:08:35;100924.88;;;10.11;100.00
64551;BME280;74341;44.510;-123.270;2024-01-30T05:11:07;100922.31;;;10.09;100.00
64551;BME280;74341;44.510;-123.270;2024-01-30T05:13:33;100925.22;;;10.08;100.00
64551;BME280;74341;44.510;-123.270;2024-01-30T05:16:02;100918.91;;;10.07;100.00
64551;BME280;74341;44.510;-123.270;2024-01-30T05:18:29;100921.09;;;10.04;100.00
64551;BME280;74341;44.510;-123.270;2024-01-30T05:20:56;100927.56;;;10.03;100.00
64551;BME280;74341;44.510;-123.270;2024-01-30T05:23:22;100916.97;;;10.00;100.00
64551;BME280;74341;44.510;-123.270;2024-01-30T05:25:49;100922.44;;;10.00;100.00
64551;BME280;74341;44.510;-123.270;2024-01-30T05:28:15;100925.34;;;9.98;100.00
64551;BME280;74341;44.510;-123.270;2024-01-30T05:30:41;100933.88;;;9.95;100.00
64551;BME280;74341;44.510;-123.270;2024-01-30T05:33:08;100933.19;;;9.93;100.00
64551;BME280;74341;44.510;-123.270;2024-01-30T05:35:36;100927.03;;;9.91;100.00
64551;BME280;74341;44.510;-123.270;2024-01-30T05:38:03;100928.22;;;9.88;100.00
64551;BME280;74341;44.510;-123.270;2024-01-30T05:40:30;100939.63;;;9.84;100.00
64551;BME280;74341;44.510;-123.270;2024-01-30T05:42:57;100948.19;;;9.81;100.00
64551;BME280;74341;44.510;-123.270;2024-01-30T05:45:27;100957.22;;;9.81;100.00
64551;BME280;74341;44.510;-123.270;2024-01-30T05:47:53;100951.91;;;9.80;100.00
64551;BME280;74341;44.510;-123.270;2024-01-30T05:50:20;100955.84;;;9.77;100.00
64551;BME280;74341;44.510;-123.270;2024-01-30T05:52:49;100950.19;;;9.79;100.00
64551;BME280;74341;44.510;-123.270;2024-01-30T05:55:15;100955.66;;;9.79;100.00
64551;BME280;74341;44.510;-123.270;2024-01-30T05:57:41;100961.13;;;9.79;100.00
64551;BME280;74341;44.510;-123.270;2024-01-30T06:00:08;100957.03;;;9.75;100.00
64551;BME280;74341;44.510;-123.270;2024-01-30T06:02:34;100957.88;;;9.75;100.00
64551;BME280;74341;44.510;-123.270;2024-01-30T06:05:01;100948.81;;;9.75;100.00
64551;BME280;74341;44.510;-123.270;2024-01-30T06:07:27;100952.75;;;9.72;100.00
64551;BME280;74341;44.510;-123.270;2024-01-30T06:09:54;100944.56;;;9.72;100.00
64551;BME280;74341;44.510;-123.270;2024-01-30T06:12:20;100957.03;;;9.75;100.00
64551;BME280;74341;44.510;-123.270;2024-01-30T06:14:46;100946.94;;;9.75;100.00
64551;BME280;74341;44.510;-123.270;2024-01-30T06:17:13;100938.75;;;9.75;100.00
64551;BME280;74341;44.510;-123.270;2024-01-30T06:19:39;100937.91;;;9.75;100.00
64551;BME280;74341;44.510;-123.270;2024-01-30T06:22:06;100935.00;;;9.76;100.00
64551;BME280;74341;44.510;-123.270;2024-01-30T06:24:32;100930.56;;;9.75;100.00
64551;BME280;74341;44.510;-123.270;2024-01-30T06:27:00;100942.34;;;9.76;100.00
64551;BME280;74341;44.510;-123.270;2024-01-30T06:29:26;100936.75;;;9.77;100.00
64551;BME280;74341;44.510;-123.270;2024-01-30T06:31:53;100929.41;;;9.78;100.00
64551;BME280;74341;44.510;-123.270;2024-01-30T06:34:19;100925.81;;;9.77;100.00
64551;BME280;74341;44.510;-123.270;2024-01-30T06:36:46;100927.66;;;9.77;100.00
64551;BME280;74341;44.510;-123.270;2024-01-30T06:39:12;100913.84;;;9.78;100.00
64551;BME280;74341;44.510;-123.270;2024-01-30T06:41:38;100925.81;;;9.77;100.00
64551;BME280;74341;44.510;-123.270;2024-01-30T06:44:04;100920.34;;;9.77;100.00
64551;BME280;74341;44.510;-123.270;2024-01-30T06:46:32;100918.47;;;9.78;100.00
64551;BME280;74341;44.510;-123.270;2024-01-30T06:48:58;100918.47;;;9.78;100.00
64551;BME280;74341;44.510;-123.270;2024-01-30T06:51:25;100914.69;;;9.79;100.00
64551;BME280;74341;44.510;-123.270;2024-01-30T06:53:51;100916.44;;;9.80;100.00
64551;BME280;74341;44.510;-123.270;2024-01-30T06:56:18;100912.69;;;9.81;100.00
64551;BME280;74341;44.510;-123.270;2024-01-30T06:58:50;100916.09;;;9.83;100.00
64551;BME280;74341;44.510;-123.270;2024-01-30T07:01:16;100930.44;;;9.85;100.00
64551;BME280;74341;44.510;-123.270;2024-01-30T07:03:43;100911.31;;;9.85;100.00
64551;BME280;74341;44.510;-123.270;2024-01-30T07:06:10;100926.88;;;9.84;100.00
64551;BME280;74341;44.510;-123.270;2024-01-30T07:08:37;100930.28;;;9.86;100.00
64551;BME280;74341;44.510;-123.270;2024-01-30T07:11:07;100934.00;;;9.85;100.00
64551;BME280;74341;44.510;-123.270;2024-01-30T07:13:34;100934.91;;;9.86;100.00
64551;BME280;74341;44.510;-123.270;2024-01-30T07:16:00;100940.16;;;9.87;100.00
64551;BME280;74341;44.510;-123.270;2024-01-30T07:18:27;100946.34;;;9.89;100.00
64551;BME280;74341;44.510;-123.270;2024-01-30T07:20:53;100938.16;;;9.89;100.00
64551;BME280;74341;44.510;-123.270;2024-01-30T07:23:19;100936.94;;;9.92;100.00
64551;BME280;74341;44.510;-123.270;2024-01-30T07:25:46;100941.41;;;9.93;100.00
64551;BME280;74341;44.510;-123.270;2024-01-30T07:28:16;100948.72;;;9.93;100.00
64551;BME280;74341;44.510;-123.270;2024-01-30T07:30:45;100954.84;;;9.95;100.00
64551;BME280;74341;44.510;-123.270;2024-01-30T07:33:11;100961.19;;;9.95;100.00
64551;BME280;74341;44.510;-123.270;2024-01-30T07:35:38;100960.16;;;9.96;100.00
64551;BME280;74341;44.510;-123.270;2024-01-30T07:38:04;100963.78;;;9.97;100.00
64551;BME280;74341;44.510;-123.270;2024-01-30T07:40:30;100959.16;;;9.97;100.00
64551;BME280;74341;44.510;-123.270;2024-01-30T07:42:59;100956.59;;;9.96;100.00
64551;BME280;74341;44.510;-123.270;2024-01-30T07:45:26;100954.00;;;9.94;100.00
64551;BME280;74341;44.510;-123.270;2024-01-30T07:47:58;100943.94;;;9.95;100.00
64551;BME280;74341;44.510;-123.270;2024-01-30T07:50:26;100929.28;;;9.96;100.00
64551;BME280;74341;44.510;-123.270;2024-01-30T07:52:52;100927.53;;;9.95;100.00
64551;BME280;74341;44.510;-123.270;2024-01-30T07:55:23;100922.81;;;9.97;100.00
64551;BME280;74341;44.510;-123.270;2024-01-30T07:57:53;100936.47;;;9.97;100.00
64551;BME280;74341;44.510;-123.270;2024-01-30T08:00:21;100933.72;;;9.97;100.00
64551;BME280;74341;44.510;-123.270;2024-01-30T08:02:48;100928.25;;;9.97;100.00
64551;BME280;74341;44.510;-123.270;2024-01-30T08:05:14;100941.91;;;9.97;100.00
64551;BME280;74341;44.510;-123.270;2024-01-30T08:07:41;100931.16;;;9.95;100.00
64551;BME280;74341;44.510;-123.270;2024-01-30T08:10:08;100934.72;;;9.96;100.00
64551;BME280;74341;44.510;-123.270;2024-01-30T08:12:35;100926.69;;;9.94;100.00
64551;BME280;74341;44.510;-123.270;2024-01-30T08:15:01;100930.28;;;9.95;100.00
64551;BME280;74341;44.510;-123.270;2024-01-30T08:17:29;100916.63;;;9.95;100.00
64551;BME280;74341;44.510;-123.270;2024-01-30T08:19:55;100913.03;;;9.94;100.00
64551;BME280;74341;44.510;-123.270;2024-01-30T08:22:21;100913.38;;;9.91;100.00
64551;BME280;74341;44.510;-123.270;2024-01-30T08:24:48;100913.56;;;9.89;100.00
64551;BME280;74341;44.510;-123.270;2024-01-30T08:27:14;100909.44;;;9.85;100.00
64551;BME280;74341;44.510;-123.270;2024-01-30T08:29:40;100906.03;;;9.83;100.00
64551;BME280;74341;44.510;-123.270;2024-01-30T08:32:07;100900.03;;;9.80;100.00
64551;BME280;74341;44.510;-123.270;2024-01-30T08:34:34;100902.09;;;9.78;100.00
64551;BME280;74341;44.510;-123.270;2024-01-30T08:37:00;100901.03;;;9.70;100.00
64551;BME280;74341;44.510;-123.270;2024-01-30T08:39:26;100895.06;;;9.67;100.00
64551;BME280;74341;44.510;-123.270;2024-01-30T08:41:53;100890.94;;;9.63;100.00
64551;BME280;74341;44.510;-123.270;2024-01-30T08:44:19;100890.41;;;9.59;100.00
64551;BME280;74341;44.510;-123.270;2024-01-30T08:46:46;100881.69;;;9.56;100.00
64551;BME280;74341;44.510;-123.270;2024-01-30T08:49:13;100887.50;;;9.52;100.00
64551;BME280;74341;44.510;-123.270;2024-01-30T08:51:39;100888.69;;;9.50;100.00
64551;BME280;74341;44.510;-123.270;2024-01-30T08:54:06;100885.44;;;9.46;100.00
64551;BME280;74341;44.510;-123.270;2024-01-30T08:56:32;100888.31;;;9.45;100.00
64551;BME280;74341;44.510;-123.270;2024-01-30T08:58:58;100893.97;;;9.43;100.00
64551;BME280;74341;44.510;-123.270;2024-01-30T09:01:25;100892.25;;;9.42;100.00
64551;BME280;74341;44.510;-123.270;2024-01-30T09:03:52;100886.94;;;9.41;100.00
64551;BME280;74341;44.510;-123.270;2024-01-30T09:06:18;100877.22;;;9.38;100.00
64551;BME280;74341;44.510;-123.270;2024-01-30T09:08:45;100872.78;;;9.37;100.00
64551;BME280;74341;44.510;-123.270;2024-01-30T09:11:13;100878.56;;;9.34;100.00
64551;BME280;74341;44.510;-123.270;2024-01-30T09:13:41;100870.53;;;9.32;100.00
64551;BME280;74341;44.510;-123.270;2024-01-30T09:16:07;100875.13;;;9.32;100.00
64551;BME280;74341;44.510;-123.270;2024-01-30T09:18:34;100877.19;;;9.30;100.00
64551;BME280;74341;44.510;-123.270;2024-01-30T09:21:00;100877.50;;;9.27;100.00
64551;BME280;74341;44.510;-123.270;2024-01-30T09:23:28;100870.34;;;9.26;100.00
64551;BME280;74341;44.510;-123.270;2024-01-30T09:25:54;100859.59;;;9.24;100.00
64551;BME280;74341;44.510;-123.270;2024-01-30T09:28:21;100858.91;;;9.22;100.00
64551;BME280;74341;44.510;-123.270;2024-01-30T09:30:47;100850.72;;;9.22;100.00
64551;BME280;74341;44.510;-123.270;2024-01-30T09:33:14;100854.47;;;9.21;100.00
64551;BME280;74341;44.510;-123.270;2024-01-30T09:35:40;100848.16;;;9.21;100.00
64551;BME280;74341;44.510;-123.270;2024-01-30T09:38:06;100838.25;;;9.20;100.00
64551;BME280;74341;44.510;-123.270;2024-01-30T09:40:33;100840.13;;;9.19;100.00
64551;BME280;74341;44.510;-123.270;2024-01-30T09:42:59;100842.19;;;9.17;100.00
64551;BME280;74341;44.510;-123.270;2024-01-30T09:45:26;100846.94;;;9.15;100.00
64551;BME280;74341;44.510;-123.270;2024-01-30T09:47:53;100850.69;;;9.14;100.00
64551;BME280;74341;44.510;-123.270;2024-01-30T09:50:20;100850.69;;;9.14;100.00
64551;BME280;74341;44.510;-123.270;2024-01-30T09:52:46;100840.44;;;9.08;100.00
64551;BME280;74341;44.510;-123.270;2024-01-30T09:55:13;100829.00;;;9.04;100.00
64551;BME280;74341;44.510;-123.270;2024-01-30T09:57:41;100821.81;;;9.03;100.00
64551;BME280;74341;44.510;-123.270;2024-01-30T10:00:08;100818.78;;;9.06;100.00
64551;BME280;74341;44.510;-123.270;2024-01-30T10:02:37;100824.75;;;9.10;100.00
64551;BME280;74341;44.510;-123.270;2024-01-30T10:05:04;100823.03;;;9.09;100.00
64551;BME280;74341;44.510;-123.270;2024-01-30T10:07:31;100820.47;;;9.07;100.00
64551;BME280;74341;44.510;-123.270;2024-01-30T10:09:57;100822.34;;;9.07;100.00
64551;BME280;74341;44.510;-123.270;2024-01-30T10:12:27;100815.38;;;9.04;100.00
64551;BME280;74341;44.510;-123.270;2024-01-30T10:14:59;100810.22;;;9.01;100.00
64551;BME280;74341;44.510;-123.270;2024-01-30T10:17:26;100814.13;;;8.99;100.00
64551;BME280;74341;44.510;-123.270;2024-01-30T10:19:53;100815.16;;;8.98;100.00
64551;BME280;74341;44.510;-123.270;2024-01-30T10:22:19;100820.63;;;8.98;100.00
64551;BME280;74341;44.510;-123.270;2024-01-30T10:24:46;100827.06;;;8.97;100.00
64551;BME280;74341;44.510;-123.270;2024-01-30T10:27:12;100822.81;;;8.94;100.00
64551;BME280;74341;44.510;-123.270;2024-01-30T10:29:38;100827.38;;;8.93;100.00
64551;BME280;74341;44.510;-123.270;2024-01-30T10:32:05;100829.25;;;8.93;100.00
64551;BME280;74341;44.510;-123.270;2024-01-30T10:34:32;100824.84;;;8.92;100.00
64551;BME280;74341;44.510;-123.270;2024-01-30T10:39:37;100843.22;;;8.90;100.00
64551;BME280;74341;44.510;-123.270;2024-01-30T10:42:05;100831.31;;;8.91;100.00
64551;BME280;74341;44.510;-123.270;2024-01-30T10:45:07;100844.09;;;8.90;100.00
64551;BME280;74341;44.510;-123.270;2024-01-30T10:47:49;100847.81;;;8.89;100.00
64551;BME280;74341;44.510;-123.270;2024-01-30T10:50:16;100843.22;;;8.90;100.00
64551;BME280;74341;44.510;-123.270;2024-01-30T10:52:43;100846.81;;;8.90;100.00
64551;BME280;74341;44.510;-123.270;2024-01-30T10:55:10;100850.38;;;8.91;100.00
64551;BME280;74341;44.510;-123.270;2024-01-30T10:57:37;100851.41;;;8.90;100.00
64551;BME280;74341;44.510;-123.270;2024-01-30T11:00:08;100850.38;;;8.91;100.00
64551;BME280;74341;44.510;-123.270;2024-01-30T11:02:45;100833.03;;;8.92;100.00
64551;BME280;74341;44.510;-123.270;2024-01-30T11:05:12;100829.59;;;8.90;100.00
64551;BME280;74341;44.510;-123.270;2024-01-30T11:07:41;100814.41;;;8.87;100.00
64551;BME280;74341;44.510;-123.270;2024-01-30T11:10:08;100809.66;;;8.89;100.00
64551;BME280;74341;44.510;-123.270;2024-01-30T11:12:39;100802.31;;;8.90;100.00
64551;BME280;74341;44.510;-123.270;2024-01-30T11:15:13;100806.09;;;8.89;100.00
64551;BME280;74341;44.510;-123.270;2024-01-30T11:17:53;100807.25;;;8.86;100.00
64551;BME280;74341;44.510;-123.270;2024-01-30T11:20:26;100799.06;;;8.86;100.00
64551;BME280;74341;44.510;-123.270;2024-01-30T11:22:55;100787.31;;;8.86;100.00
64551;BME280;74341;44.510;-123.270;2024-01-30T11:25:23;100778.13;;;8.87;100.00
64551;BME280;74341;44.510;-123.270;2024-01-30T11:27:51;100781.84;;;8.86;100.00
64551;BME280;74341;44.510;-123.270;2024-01-30T11:33:06;100781.69;;;8.87;100.00
64551;BME280;74341;44.510;-123.270;2024-01-30T11:35:34;100775.25;;;8.88;100.00
64551;BME280;74341;44.510;-123.270;2024-01-30T11:38:01;100771.66;;;8.88;100.00
64551;BME280;74341;44.510;-123.270;2024-01-30T11:40:29;100766.34;;;8.86;100.00
64551;BME280;74341;44.510;-123.270;2024-01-30T11:42:56;100769.06;;;8.86;100.00
64551;BME280;74341;44.510;-123.270;2024-01-30T11:45:24;100766.19;;;8.88;100.00
64551;BME280;74341;44.510;-123.270;2024-01-30T11:47:50;100760.75;;;8.88;100.00
64551;BME280;74341;44.510;-123.270;2024-01-30T11:50:16;100754.28;;;8.89;100.00
64551;BME280;74341;44.510;-123.270;2024-01-30T11:52:43;100753.44;;;8.88;100.00
64551;BME280;74341;44.510;-123.270;2024-01-30T11:55:10;100763.31;;;8.89;100.00
64551;BME280;74341;44.510;-123.270;2024-01-30T11:57:36;100759.56;;;8.90;100.00
64551;BME280;74341;44.510;-123.270;2024-01-30T12:00:03;100751.22;;;8.92;100.00
64551;BME280;74341;44.510;-123.270;2024-01-30T12:02:41;100743.75;;;8.94;100.00
64551;BME280;74341;44.510;-123.270;2024-01-30T12:05:08;100736.72;;;8.91;100.00
64551;BME280;74341;44.510;-123.270;2024-01-30T12:07:36;100736.72;;;8.91;100.00
64551;BME280;74341;44.510;-123.270;2024-01-30T12:10:03;100736.72;;;8.91;100.00
64551;BME280;74341;44.510;-123.270;2024-01-30T12:12:31;100741.16;;;8.92;100.00
64551;BME280;74341;44.510;-123.270;2024-01-30T12:14:58;100743.06;;;8.92;100.00
64551;BME280;74341;44.510;-123.270;2024-01-30T12:17:32;100734.00;;;8.91;100.00
64551;BME280;74341;44.510;-123.270;2024-01-30T12:20:26;100738.59;;;8.91;100.00